sensor_id;sensor_type;location;lat;lon;timestamp;temperature;humidity
2158;DHT22;41972;48.774;9.282;2023-12-29T00:00:26;9.10;99.90
2158;DHT22;41972;48.774;9.282;2023-12-29T00:02:51;9.10;99.90
2158;DHT22;41972;48.774;9.282;2023-12-29T00:05:17;9.20;99.90
2158;DHT22;41972;48.774;9.282;2023-12-29T00:07:42;9.30;99.90
2158;DHT22;41972;48.774;9.282;2023-12-29T00:10:08;9.30;99.90
2158;DHT22;41972;48.774;9.282;2023-12-29T00:12:34;9.40;99.90
2158;DHT22;41972;48.774;9.282;2023-12-29T00:14:59;9.40;99.90
2158;DHT22;41972;48.774;9.282;2023-12-29T00:17:25;9.40;99.90
2158;DHT22;41972;48.774;9.282;2023-12-29T00:19:50;9.40;99.90
2158;DHT22;41972;48.774;9.282;2023-12-29T00:22:16;9.50;99.90
2158;DHT22;41972;48.774;9.282;2023-12-29T00:24:42;9.60;99.90
2158;DHT22;41972;48.774;9.282;2023-12-29T00:27:07;9.80;99.90
2158;DHT22;41972;48.774;9.282;2023-12-29T00:29:33;9.40;99.90
2158;DHT22;41972;48.774;9.282;2023-12-29T00:31:59;9.40;99.90
2158;DHT22;41972;48.774;9.282;2023-12-29T00:34:28;9.40;99.90
2158;DHT22;41972;48.774;9.282;2023-12-29T00:36:54;9.40;99.90
2158;DHT22;41972;48.774;9.282;2023-12-29T00:39:19;9.40;99.90
2158;DHT22;41972;48.774;9.282;2023-12-29T00:41:54;9.30;99.90
2158;DHT22;41972;48.774;9.282;2023-12-29T00:44:19;9.30;99.90
2158;DHT22;41972;48.774;9.282;2023-12-29T00:46:45;9.20;99.90
2158;DHT22;41972;48.774;9.282;2023-12-29T00:49:10;9.00;99.90
2158;DHT22;41972;48.774;9.282;2023-12-29T00:51:39;8.90;99.90
2158;DHT22;41972;48.774;9.282;2023-12-29T00:54:06;8.90;99.90
2158;DHT22;41972;48.774;9.282;2023-12-29T00:56:32;9.00;99.90
2158;DHT22;41972;48.774;9.282;2023-12-29T00:58:57;9.10;99.90
2158;DHT22;41972;48.774;9.282;2023-12-29T01:01:23;9.20;99.90
2158;DHT22;41972;48.774;9.282;2023-12-29T01:03:48;9.90;99.90
2158;DHT22;41972;48.774;9.282;2023-12-29T01:06:14;9.40;99.90
2158;DHT22;41972;48.774;9.282;2023-12-29T01:08:39;9.40;99.90
2158;DHT22;41972;48.774;9.282;2023-12-29T01:11:05;9.50;99.90
2158;DHT22;41972;48.774;9.282;2023-12-29T01:13:31;9.50;99.90
2158;DHT22;41972;48.774;9.282;2023-12-29T01:15:57;9.40;99.90
2158;DHT22;41972;48.774;9.282;2023-12-29T01:18:22;9.50;99.90
2158;DHT22;41972;48.774;9.282;2023-12-29T01:20:48;9.40;99.90
2158;DHT22;41972;48.774;9.282;2023-12-29T01:23:13;9.50;99.90
2158;DHT22;41972;48.774;9.282;2023-12-29T01:25:39;9.50;99.90
2158;DHT22;41972;48.774;9.282;2023-12-29T01:28:05;9.30;99.90
2158;DHT22;41972;48.774;9.282;2023-12-29T01:30:30;9.30;99.90
2158;DHT22;41972;48.774;9.282;2023-12-29T01:32:56;9.30;99.90
2158;DHT22;41972;48.774;9.282;2023-12-29T01:35:21;9.20;99.90
2158;DHT22;41972;48.774;9.282;2023-12-29T01:37:47;9.20;99.90
2158;DHT22;41972;48.774;9.282;2023-12-29T01:40:12;9.20;99.90
2158;DHT22;41972;48.774;9.282;2023-12-29T01:42:38;9.20;99.90
2158;DHT22;41972;48.774;9.282;2023-12-29T01:45:05;9.10;99.90
2158;DHT22;41972;48.774;9.282;2023-12-29T01:47:32;9.00;99.90
2158;DHT22;41972;48.774;9.282;2023-12-29T01:49:58;9.00;99.90
2158;DHT22;41972;48.774;9.282;2023-12-29T01:52:24;9.20;99.90
2158;DHT22;41972;48.774;9.282;2023-12-29T01:54:51;9.30;99.90
2158;DHT22;41972;48.774;9.282;2023-12-29T01:57:18;9.30;99.90
2158;DHT22;41972;48.774;9.282;2023-12-29T01:59:45;9.60;99.90
2158;DHT22;41972;48.774;9.282;2023-12-29T02:02:13;9.40;99.90
2158;DHT22;41972;48.774;9.282;2023-12-29T02:04:38;9.40;99.90
2158;DHT22;41972;48.774;9.282;2023-12-29T02:07:05;9.40;99.90
2158;DHT22;41972;48.774;9.282;2023-12-29T02:09:31;9.50;99.90
2158;DHT22;41972;48.774;9.282;2023-12-29T02:11:59;9.50;99.90
2158;DHT22;41972;48.774;9.282;2023-12-29T02:14:25;9.50;99.90
2158;DHT22;41972;48.774;9.282;2023-12-29T02:17:13;9.50;99.90
2158;DHT22;41972;48.774;9.282;2023-12-29T02:19:42;9.50;99.90
2158;DHT22;41972;48.774;9.282;2023-12-29T02:22:12;9.50;99.90
2158;DHT22;41972;48.774;9.282;2023-12-29T02:24:39;9.50;99.90
2158;DHT22;41972;48.774;9.282;2023-12-29T02:27:25;9.60;99.90
2158;DHT22;41972;48.774;9.282;2023-12-29T02:32:46;9.60;99.90
2158;DHT22;41972;48.774;9.282;2023-12-29T02:35:23;9.60;99.90
2158;DHT22;41972;48.774;9.282;2023-12-29T02:37:49;9.60;99.90
2158;DHT22;41972;48.774;9.282;2023-12-29T02:40:15;9.60;99.90
2158;DHT22;41972;48.774;9.282;2023-12-29T02:42:46;9.70;99.90
2158;DHT22;41972;48.774;9.282;2023-12-29T02:45:12;9.70;99.90
2158;DHT22;41972;48.774;9.282;2023-12-29T02:47:38;9.70;99.90
2158;DHT22;41972;48.774;9.282;2023-12-29T02:50:04;9.70;99.90
2158;DHT22;41972;48.774;9.282;2023-12-29T02:52:29;9.60;99.90
2158;DHT22;41972;48.774;9.282;2023-12-29T02:54:55;9.60;99.90
2158;DHT22;41972;48.774;9.282;2023-12-29T02:57:20;9.50;99.90
2158;DHT22;41972;48.774;9.282;2023-12-29T02:59:46;9.40;99.90
2158;DHT22;41972;48.774;9.282;2023-12-29T03:02:11;9.40;99.90
2158;DHT22;41972;48.774;9.282;2023-12-29T03:04:37;9.40;99.90
2158;DHT22;41972;48.774;9.282;2023-12-29T03:07:03;9.40;99.90
2158;DHT22;41972;48.774;9.282;2023-12-29T03:09:28;9.30;99.90
2158;DHT22;41972;48.774;9.282;2023-12-29T03:11:54;9.40;99.90
2158;DHT22;41972;48.774;9.282;2023-12-29T03:14:19;9.40;99.90
2158;DHT22;41972;48.774;9.282;2023-12-29T03:16:45;9.50;99.90
2158;DHT22;41972;48.774;9.282;2023-12-29T03:19:10;9.30;99.90
2158;DHT22;41972;48.774;9.282;2023-12-29T03:21:36;9.30;99.90
2158;DHT22;41972;48.774;9.282;2023-12-29T03:24:01;9.20;99.90
2158;DHT22;41972;48.774;9.282;2023-12-29T03:26:27;9.30;99.90
2158;DHT22;41972;48.774;9.282;2023-12-29T03:28:54;9.40;99.90
2158;DHT22;41972;48.774;9.282;2023-12-29T03:31:20;9.30;99.90
2158;DHT22;41972;48.774;9.282;2023-12-29T03:33:45;10.10;99.90
2158;DHT22;41972;48.774;9.282;2023-12-29T03:36:11;9.30;99.90
2158;DHT22;41972;48.774;9.282;2023-12-29T03:38:36;9.30;99.90
2158;DHT22;41972;48.774;9.282;2023-12-29T03:41:03;9.20;99.90
2158;DHT22;41972;48.774;9.282;2023-12-29T03:43:28;9.10;99.90
2158;DHT22;41972;48.774;9.282;2023-12-29T03:45:54;9.10;99.90
2158;DHT22;41972;48.774;9.282;2023-12-29T03:48:20;9.00;99.90
2158;DHT22;41972;48.774;9.282;2023-12-29T03:50:45;8.90;99.90
2158;DHT22;41972;48.774;9.282;2023-12-29T03:53:11;8.80;99.90
2158;DHT22;41972;48.774;9.282;2023-12-29T03:55:36;8.80;99.90
2158;DHT22;41972;48.774;9.282;2023-12-29T03:58:03;8.80;99.90
2158;DHT22;41972;48.774;9.282;2023-12-29T04:00:28;8.80;99.90
2158;DHT22;41972;48.774;9.282;2023-12-29T04:02:54;8.80;99.90
2158;DHT22;41972;48.774;9.282;2023-12-29T04:05:21;8.80;99.90
2158;DHT22;41972;48.774;9.282;2023-12-29T04:07:46;8.70;99.90
2158;DHT22;41972;48.774;9.282;2023-12-29T04:10:12;8.70;99.90
2158;DHT22;41972;48.774;9.282;2023-12-29T04:12:37;8.60;99.90
2158;DHT22;41972;48.774;9.282;2023-12-29T04:15:04;8.60;99.90
2158;DHT22;41972;48.774;9.282;2023-12-29T04:17:29;8.60;99.90
2158;DHT22;41972;48.774;9.282;2023-12-29T04:19:55;8.60;99.90
2158;DHT22;41972;48.774;9.282;2023-12-29T04:22:21;8.70;99.90
2158;DHT22;41972;48.774;9.282;2023-12-29T04:24:47;8.60;99.90
2158;DHT22;41972;48.774;9.282;2023-12-29T04:27:15;8.50;99.90
2158;DHT22;41972;48.774;9.282;2023-12-29T04:29:40;8.50;99.90
2158;DHT22;41972;48.774;9.282;2023-12-29T04:32:06;8.50;99.90
2158;DHT22;41972;48.774;9.282;2023-12-29T04:34:33;8.60;99.90
2158;DHT22;41972;48.774;9.282;2023-12-29T04:36:58;8.70;99.90
2158;DHT22;41972;48.774;9.282;2023-12-29T04:39:24;8.70;99.90
2158;DHT22;41972;48.774;9.282;2023-12-29T04:41:50;8.80;99.90
2158;DHT22;41972;48.774;9.282;2023-12-29T04:44:15;8.80;99.90
2158;DHT22;41972;48.774;9.282;2023-12-29T04:46:41;8.80;99.90
2158;DHT22;41972;48.774;9.282;2023-12-29T04:49:07;8.70;99.90
2158;DHT22;41972;48.774;9.282;2023-12-29T04:51:33;8.70;99.90
2158;DHT22;41972;48.774;9.282;2023-12-29T04:53:59;8.70;99.90
2158;DHT22;41972;48.774;9.282;2023-12-29T04:56:24;8.60;99.90
2158;DHT22;41972;48.774;9.282;2023-12-29T04:58:51;8.70;99.90
2158;DHT22;41972;48.774;9.282;2023-12-29T05:01:17;8.70;99.90
2158;DHT22;41972;48.774;9.282;2023-12-29T05:03:42;8.70;99.90
2158;DHT22;41972;48.774;9.282;2023-12-29T05:06:08;8.80;99.90
2158;DHT22;41972;48.774;9.282;2023-12-29T05:08:33;8.70;99.90
2158;DHT22;41972;48.774;9.282;2023-12-29T05:11:00;8.80;99.90
2158;DHT22;41972;48.774;9.282;2023-12-29T05:13:25;8.70;99.90
2158;DHT22;41972;48.774;9.282;2023-12-29T05:15:51;8.60;99.90
2158;DHT22;41972;48.774;9.282;2023-12-29T05:18:16;8.60;99.90
2158;DHT22;41972;48.774;9.282;2023-12-29T05:20:42;8.60;99.90
2158;DHT22;41972;48.774;9.282;2023-12-29T05:23:08;8.70;99.90
2158;DHT22;41972;48.774;9.282;2023-12-29T05:25:34;8.80;99.90
2158;DHT22;41972;48.774;9.282;2023-12-29T05:27:59;8.80;99.90
2158;DHT22;41972;48.774;9.282;2023-12-29T05:30:25;8.80;99.90
2158;DHT22;41972;48.774;9.282;2023-12-29T05:32:52;8.80;99.90
2158;DHT22;41972;48.774;9.282;2023-12-29T05:35:17;8.70;99.90
2158;DHT22;41972;48.774;9.282;2023-12-29T05:37:43;8.60;99.90
2158;DHT22;41972;48.774;9.282;2023-12-29T05:40:08;8.60;99.90
2158;DHT22;41972;48.774;9.282;2023-12-29T05:42:34;8.70;99.90
2158;DHT22;41972;48.774;9.282;2023-12-29T05:44:59;8.60;99.90
2158;DHT22;41972;48.774;9.282;2023-12-29T05:47:25;8.60;99.90
2158;DHT22;41972;48.774;9.282;2023-12-29T05:49:51;8.60;99.90
2158;DHT22;41972;48.774;9.282;2023-12-29T05:52:16;8.60;99.90
2158;DHT22;41972;48.774;9.282;2023-12-29T05:54:42;9.20;99.90
2158;DHT22;41972;48.774;9.282;2023-12-29T05:57:07;9.80;99.90
2158;DHT22;41972;48.774;9.282;2023-12-29T05:59:33;8.50;99.90
2158;DHT22;41972;48.774;9.282;2023-12-29T06:01:58;8.50;99.90
2158;DHT22;41972;48.774;9.282;2023-12-29T06:04:24;8.50;99.90
2158;DHT22;41972;48.774;9.282;2023-12-29T06:06:49;8.50;99.90
2158;DHT22;41972;48.774;9.282;2023-12-29T06:09:15;8.40;99.90
2158;DHT22;41972;48.774;9.282;2023-12-29T06:11:40;8.50;99.90
2158;DHT22;41972;48.774;9.282;2023-12-29T06:14:06;8.50;99.90
2158;DHT22;41972;48.774;9.282;2023-12-29T06:16:31;8.30;99.90
2158;DHT22;41972;48.774;9.282;2023-12-29T06:18:57;8.20;99.90
2158;DHT22;41972;48.774;9.282;2023-12-29T06:21:23;8.30;99.90
2158;DHT22;41972;48.774;9.282;2023-12-29T06:23:48;8.40;99.90
2158;DHT22;41972;48.774;9.282;2023-12-29T06:26:18;8.40;99.90
2158;DHT22;41972;48.774;9.282;2023-12-29T06:28:47;8.40;99.90
2158;DHT22;41972;48.774;9.282;2023-12-29T06:31:13;8.50;99.90
2158;DHT22;41972;48.774;9.282;2023-12-29T06:33:42;8.50;99.90
2158;DHT22;41972;48.774;9.282;2023-12-29T06:36:08;8.40;99.90
2158;DHT22;41972;48.774;9.282;2023-12-29T06:38:34;8.40;99.90
2158;DHT22;41972;48.774;9.282;2023-12-29T06:41:03;8.30;99.90
2158;DHT22;41972;48.774;9.282;2023-12-29T06:43:29;8.30;99.90
2158;DHT22;41972;48.774;9.282;2023-12-29T06:45:55;8.40;99.90
2158;DHT22;41972;48.774;9.282;2023-12-29T06:48:21;8.40;99.90
2158;DHT22;41972;48.774;9.282;2023-12-29T06:50:47;8.40;99.90
2158;DHT22;41972;48.774;9.282;2023-12-29T06:53:12;8.50;99.90
2158;DHT22;41972;48.774;9.282;2023-12-29T06:55:38;8.50;99.90
2158;DHT22;41972;48.774;9.282;2023-12-29T06:58:07;8.50;99.90
2158;DHT22;41972;48.774;9.282;2023-12-29T07:00:33;8.50;99.90
2158;DHT22;41972;48.774;9.282;2023-12-29T07:03:00;8.50;99.90
2158;DHT22;41972;48.774;9.282;2023-12-29T07:05:26;8.40;99.90
2158;DHT22;41972;48.774;9.282;2023-12-29T07:07:52;8.50;99.90
2158;DHT22;41972;48.774;9.282;2023-12-29T07:10:17;8.60;99.90
2158;DHT22;41972;48.774;9.282;2023-12-29T07:12:43;8.60;99.90
2158;DHT22;41972;48.774;9.282;2023-12-29T07:15:09;8.60;99.90
2158;DHT22;41972;48.774;9.282;2023-12-29T07:17:34;8.70;99.90
2158;DHT22;41972;48.774;9.282;2023-12-29T07:20:00;8.70;99.90
2158;DHT22;41972;48.774;9.282;2023-12-29T07:22:25;8.70;99.90
2158;DHT22;41972;48.774;9.282;2023-12-29T07:24:51;8.70;99.90
2158;DHT22;41972;48.774;9.282;2023-12-29T07:27:16;8.80;99.90
2158;DHT22;41972;48.774;9.282;2023-12-29T07:29:42;8.80;99.90
2158;DHT22;41972;48.774;9.282;2023-12-29T07:32:07;8.70;99.90
2158;DHT22;41972;48.774;9.282;2023-12-29T07:34:33;8.80;99.90
2158;DHT22;41972;48.774;9.282;2023-12-29T07:36:59;8.80;99.90
2158;DHT22;41972;48.774;9.282;2023-12-29T07:39:25;8.90;99.90
2158;DHT22;41972;48.774;9.282;2023-12-29T07:41:52;9.00;99.90
2158;DHT22;41972;48.774;9.282;2023-12-29T07:44:18;8.90;99.90
2158;DHT22;41972;48.774;9.282;2023-12-29T07:46:44;8.90;99.90
2158;DHT22;41972;48.774;9.282;2023-12-29T07:49:10;8.90;99.90
2158;DHT22;41972;48.774;9.282;2023-12-29T07:51:42;9.00;99.90
2158;DHT22;41972;48.774;9.282;2023-12-29T07:54:08;9.10;99.90
2158;DHT22;41972;48.774;9.282;2023-12-29T07:56:34;9.10;99.90
2158;DHT22;41972;48.774;9.282;2023-12-29T07:59:01;9.10;99.90
2158;DHT22;41972;48.774;9.282;2023-12-29T08:01:26;9.20;99.90
2158;DHT22;41972;48.774;9.282;2023-12-29T08:03:52;9.30;99.90
2158;DHT22;41972;48.774;9.282;2023-12-29T08:06:18;9.30;99.90
2158;DHT22;41972;48.774;9.282;2023-12-29T08:08:43;9.20;99.90
2158;DHT22;41972;48.774;9.282;2023-12-29T08:11:15;9.40;99.90
2158;DHT22;41972;48.774;9.282;2023-12-29T08:13:43;9.50;99.90
2158;DHT22;41972;48.774;9.282;2023-12-29T08:16:10;9.70;99.90
2158;DHT22;41972;48.774;9.282;2023-12-29T08:18:35;9.70;99.90
2158;DHT22;41972;48.774;9.282;2023-12-29T08:21:01;9.60;99.90
2158;DHT22;41972;48.774;9.282;2023-12-29T08:23:27;9.50;99.90
2158;DHT22;41972;48.774;9.282;2023-12-29T08:25:56;9.70;99.90
2158;DHT22;41972;48.774;9.282;2023-12-29T08:28:22;9.90;99.90
2158;DHT22;41972;48.774;9.282;2023-12-29T08:30:48;9.80;99.90
2158;DHT22;41972;48.774;9.282;2023-12-29T08:33:13;9.80;99.90
2158;DHT22;41972;48.774;9.282;2023-12-29T08:35:40;9.70;99.90
2158;DHT22;41972;48.774;9.282;2023-12-29T08:38:06;9.70;99.90
2158;DHT22;41972;48.774;9.282;2023-12-29T08:40:31;9.90;99.90
2158;DHT22;41972;48.774;9.282;2023-12-29T08:42:57;9.80;99.90
2158;DHT22;41972;48.774;9.282;2023-12-29T08:45:22;9.90;99.90
2158;DHT22;41972;48.774;9.282;2023-12-29T08:47:48;10.00;99.90
2158;DHT22;41972;48.774;9.282;2023-12-29T08:50:13;10.00;99.90
2158;DHT22;41972;48.774;9.282;2023-12-29T08:52:40;9.80;99.90
2158;DHT22;41972;48.774;9.282;2023-12-29T08:55:06;10.80;99.90
2158;DHT22;41972;48.774;9.282;2023-12-29T08:57:31;10.00;99.90
2158;DHT22;41972;48.774;9.282;2023-12-29T08:59:57;10.30;99.90
2158;DHT22;41972;48.774;9.282;2023-12-29T09:02:22;10.60;99.90
2158;DHT22;41972;48.774;9.282;2023-12-29T09:04:48;10.70;99.90
2158;DHT22;41972;48.774;9.282;2023-12-29T09:07:14;10.50;99.90
2158;DHT22;41972;48.774;9.282;2023-12-29T09:09:39;10.10;99.90
2158;DHT22;41972;48.774;9.282;2023-12-29T09:12:05;10.00;99.90
2158;DHT22;41972;48.774;9.282;2023-12-29T09:14:30;9.90;99.90
2158;DHT22;41972;48.774;9.282;2023-12-29T09:16:58;10.00;99.90
2158;DHT22;41972;48.774;9.282;2023-12-29T09:19:23;10.00;99.90
2158;DHT22;41972;48.774;9.282;2023-12-29T09:21:49;10.10;99.90
2158;DHT22;41972;48.774;9.282;2023-12-29T09:24:14;10.10;99.90
2158;DHT22;41972;48.774;9.282;2023-12-29T09:26:40;10.20;99.90
2158;DHT22;41972;48.774;9.282;2023-12-29T09:29:05;10.10;99.90
2158;DHT22;41972;48.774;9.282;2023-12-29T09:31:32;11.10;99.90
2158;DHT22;41972;48.774;9.282;2023-12-29T09:33:57;10.40;99.90
2158;DHT22;41972;48.774;9.282;2023-12-29T09:36:23;10.80;99.90
2158;DHT22;41972;48.774;9.282;2023-12-29T09:38:48;10.90;99.90
2158;DHT22;41972;48.774;9.282;2023-12-29T09:41:15;11.20;99.90
2158;DHT22;41972;48.774;9.282;2023-12-29T09:43:41;11.10;99.90
2158;DHT22;41972;48.774;9.282;2023-12-29T09:46:10;11.00;99.90
2158;DHT22;41972;48.774;9.282;2023-12-29T09:48:37;10.80;99.90
2158;DHT22;41972;48.774;9.282;2023-12-29T09:51:07;10.40;99.90
2158;DHT22;41972;48.774;9.282;2023-12-29T09:53:34;10.50;99.90
2158;DHT22;41972;48.774;9.282;2023-12-29T09:56:02;10.60;99.90
2158;DHT22;41972;48.774;9.282;2023-12-29T09:58:28;10.80;99.90
2158;DHT22;41972;48.774;9.282;2023-12-29T10:00:54;10.90;99.90
2158;DHT22;41972;48.774;9.282;2023-12-29T10:03:20;11.10;99.90
2158;DHT22;41972;48.774;9.282;2023-12-29T10:05:51;11.00;99.90
2158;DHT22;41972;48.774;9.282;2023-12-29T10:08:20;10.90;99.90
2158;DHT22;41972;48.774;9.282;2023-12-29T10:10:48;11.00;99.90
2158;DHT22;41972;48.774;9.282;2023-12-29T10:13:16;11.10;99.90
2158;DHT22;41972;48.774;9.282;2023-12-29T10:15:49;11.80;99.90
2158;DHT22;41972;48.774;9.282;2023-12-29T10:18:39;12.30;99.90
2158;DHT22;41972;48.774;9.282;2023-12-29T10:21:27;11.60;99.90
2158;DHT22;41972;48.774;9.282;2023-12-29T10:23:57;13.50;99.90
2158;DHT22;41972;48.774;9.282;2023-12-29T10:26:23;14.70;99.90
2158;DHT22;41972;48.774;9.282;2023-12-29T10:28:51;14.60;99.90
2158;DHT22;41972;48.774;9.282;2023-12-29T10:31:17;16.00;99.90
2158;DHT22;41972;48.774;9.282;2023-12-29T10:33:42;14.40;99.90
2158;DHT22;41972;48.774;9.282;2023-12-29T10:36:08;12.30;99.90
2158;DHT22;41972;48.774;9.282;2023-12-29T10:38:38;12.00;99.90
2158;DHT22;41972;48.774;9.282;2023-12-29T10:41:12;12.70;99.90
2158;DHT22;41972;48.774;9.282;2023-12-29T10:43:39;14.30;99.90
2158;DHT22;41972;48.774;9.282;2023-12-29T10:46:08;15.10;99.90
2158;DHT22;41972;48.774;9.282;2023-12-29T10:48:34;16.40;99.90
2158;DHT22;41972;48.774;9.282;2023-12-29T10:51:01;16.70;99.90
2158;DHT22;41972;48.774;9.282;2023-12-29T10:53:30;17.20;99.90
2158;DHT22;41972;48.774;9.282;2023-12-29T10:55:55;16.20;99.90
2158;DHT22;41972;48.774;9.282;2023-12-29T10:58:21;17.90;99.90
2158;DHT22;41972;48.774;9.282;2023-12-29T11:00:47;17.30;99.90
2158;DHT22;41972;48.774;9.282;2023-12-29T11:03:15;16.00;99.90
2158;DHT22;41972;48.774;9.282;2023-12-29T11:05:42;15.10;99.90
2158;DHT22;41972;48.774;9.282;2023-12-29T11:08:17;15.40;99.90
2158;DHT22;41972;48.774;9.282;2023-12-29T11:10:44;16.60;99.90
2158;DHT22;41972;48.774;9.282;2023-12-29T11:13:13;15.30;99.90
2158;DHT22;41972;48.774;9.282;2023-12-29T11:15:43;14.90;99.90
2158;DHT22;41972;48.774;9.282;2023-12-29T11:18:17;13.60;99.90
2158;DHT22;41972;48.774;9.282;2023-12-29T11:20:45;13.20;99.90
2158;DHT22;41972;48.774;9.282;2023-12-29T11:23:11;13.20;99.90
2158;DHT22;41972;48.774;9.282;2023-12-29T11:25:39;13.40;99.90
2158;DHT22;41972;48.774;9.282;2023-12-29T11:28:09;13.30;99.90
2158;DHT22;41972;48.774;9.282;2023-12-29T11:30:36;13.50;99.90
2158;DHT22;41972;48.774;9.282;2023-12-29T11:33:26;12.00;99.90
2158;DHT22;41972;48.774;9.282;2023-12-29T11:36:00;12.40;99.90
2158;DHT22;41972;48.774;9.282;2023-12-29T11:38:54;12.60;99.90
2158;DHT22;41972;48.774;9.282;2023-12-29T11:44:37;12.40;99.90
2158;DHT22;41972;48.774;9.282;2023-12-29T11:47:03;12.50;99.90
2158;DHT22;41972;48.774;9.282;2023-12-29T11:49:58;12.20;99.90
2158;DHT22;41972;48.774;9.282;2023-12-29T11:52:37;11.80;99.90
2158;DHT22;41972;48.774;9.282;2023-12-29T11:55:08;12.00;99.90
2158;DHT22;41972;48.774;9.282;2023-12-29T11:57:34;12.20;99.90
2158;DHT22;41972;48.774;9.282;2023-12-29T12:00:02;12.10;99.90
2158;DHT22;41972;48.774;9.282;2023-12-29T12:02:28;12.10;99.90
2158;DHT22;41972;48.774;9.282;2023-12-29T12:04:54;12.10;99.90
2158;DHT22;41972;48.774;9.282;2023-12-29T12:09:48;12.00;99.90
2158;DHT22;41972;48.774;9.282;2023-12-29T12:12:41;12.00;99.90
2158;DHT22;41972;48.774;9.282;2023-12-29T12:15:33;11.90;99.90
2158;DHT22;41972;48.774;9.282;2023-12-29T12:18:03;12.10;99.90
2158;DHT22;41972;48.774;9.282;2023-12-29T12:20:31;12.20;99.90
2158;DHT22;41972;48.774;9.282;2023-12-29T12:22:58;13.00;99.90
2158;DHT22;41972;48.774;9.282;2023-12-29T12:25:29;12.10;99.90
2158;DHT22;41972;48.774;9.282;2023-12-29T12:27:58;12.30;99.90
2158;DHT22;41972;48.774;9.282;2023-12-29T12:30:24;12.40;99.90
2158;DHT22;41972;48.774;9.282;2023-12-29T12:33:02;12.40;99.90
2158;DHT22;41972;48.774;9.282;2023-12-29T12:35:29;12.40;99.90
2158;DHT22;41972;48.774;9.282;2023-12-29T12:38:14;12.40;99.90
2158;DHT22;41972;48.774;9.282;2023-12-29T12:40:40;12.30;99.90
2158;DHT22;41972;48.774;9.282;2023-12-29T12:43:06;12.20;99.90
2158;DHT22;41972;48.774;9.282;2023-12-29T12:45:42;12.40;99.90
2158;DHT22;41972;48.774;9.282;2023-12-29T12:50:45;12.30;99.90
2158;DHT22;41972;48.774;9.282;2023-12-29T12:53:12;12.80;99.90
2158;DHT22;41972;48.774;9.282;2023-12-29T12:55:49;12.50;99.90
2158;DHT22;41972;48.774;9.282;2023-12-29T12:58:20;12.30;99.90
2158;DHT22;41972;48.774;9.282;2023-12-29T13:00:48;12.30;99.90
2158;DHT22;41972;48.774;9.282;2023-12-29T13:03:15;12.50;99.90
2158;DHT22;41972;48.774;9.282;2023-12-29T13:05:41;12.60;99.90
2158;DHT22;41972;48.774;9.282;2023-12-29T13:08:08;12.30;99.90
2158;DHT22;41972;48.774;9.282;2023-12-29T13:10:34;12.30;99.90
2158;DHT22;41972;48.774;9.282;2023-12-29T13:13:05;12.40;99.90
2158;DHT22;41972;48.774;9.282;2023-12-29T13:15:30;12.50;99.90
2158;DHT22;41972;48.774;9.282;2023-12-29T13:17:56;12.60;99.90
2158;DHT22;41972;48.774;9.282;2023-12-29T13:20:22;12.60;99.90
2158;DHT22;41972;48.774;9.282;2023-12-29T13:22:49;13.00;99.90
2158;DHT22;41972;48.774;9.282;2023-12-29T13:25:25;12.70;99.90
2158;DHT22;41972;48.774;9.282;2023-12-29T13:27:53;12.50;99.90
2158;DHT22;41972;48.774;9.282;2023-12-29T13:30:20;12.40;99.90
2158;DHT22;41972;48.774;9.282;2023-12-29T13:32:47;12.50;99.90
2158;DHT22;41972;48.774;9.282;2023-12-29T13:35:25;12.40;99.90
2158;DHT22;41972;48.774;9.282;2023-12-29T13:38:08;12.30;99.90
2158;DHT22;41972;48.774;9.282;2023-12-29T13:40:54;12.10;99.90
2158;DHT22;41972;48.774;9.282;2023-12-29T13:43:21;12.30;99.90
2158;DHT22;41972;48.774;9.282;2023-12-29T13:45:48;12.20;99.90
2158;DHT22;41972;48.774;9.282;2023-12-29T13:48:15;12.40;99.90
2158;DHT22;41972;48.774;9.282;2023-12-29T13:50:46;12.30;99.90
2158;DHT22;41972;48.774;9.282;2023-12-29T13:53:19;12.10;99.90
2158;DHT22;41972;48.774;9.282;2023-12-29T13:55:45;12.10;99.90
2158;DHT22;41972;48.774;9.282;2023-12-29T13:58:11;12.00;99.90
2158;DHT22;41972;48.774;9.282;2023-12-29T14:00:39;12.60;99.90
2158;DHT22;41972;48.774;9.282;2023-12-29T14:03:27;12.10;99.90
2158;DHT22;41972;48.774;9.282;2023-12-29T14:06:00;12.10;99.90
2158;DHT22;41972;48.774;9.282;2023-12-29T14:08:33;12.10;99.90
2158;DHT22;41972;48.774;9.282;2023-12-29T14:11:07;12.10;99.90
2158;DHT22;41972;48.774;9.282;2023-12-29T14:13:34;12.00;99.90
2158;DHT22;41972;48.774;9.282;2023-12-29T14:16:01;12.00;99.90
2158;DHT22;41972;48.774;9.282;2023-12-29T14:21:29;12.00;99.90
2158;DHT22;41972;48.774;9.282;2023-12-29T14:29:08;11.70;99.90
2158;DHT22;41972;48.774;9.282;2023-12-29T14:31:39;11.80;99.90
2158;DHT22;41972;48.774;9.282;2023-12-29T14:34:06;11.70;99.90
2158;DHT22;41972;48.774;9.282;2023-12-29T14:36:32;11.70;99.90
2158;DHT22;41972;48.774;9.282;2023-12-29T14:38:58;11.50;99.90
2158;DHT22;41972;48.774;9.282;2023-12-29T14:41:24;11.50;99.90
2158;DHT22;41972;48.774;9.282;2023-12-29T14:43:50;11.50;99.90
2158;DHT22;41972;48.774;9.282;2023-12-29T14:46:16;11.60;99.90
2158;DHT22;41972;48.774;9.282;2023-12-29T14:48:42;11.50;99.90
2158;DHT22;41972;48.774;9.282;2023-12-29T14:51:08;11.60;99.90
2158;DHT22;41972;48.774;9.282;2023-12-29T14:53:34;11.50;99.90
2158;DHT22;41972;48.774;9.282;2023-12-29T14:55:59;11.50;99.90
2158;DHT22;41972;48.774;9.282;2023-12-29T14:58:25;11.70;99.90
2158;DHT22;41972;48.774;9.282;2023-12-29T15:00:51;11.40;99.90
2158;DHT22;41972;48.774;9.282;2023-12-29T15:03:16;11.40;99.90
2158;DHT22;41972;48.774;9.282;2023-12-29T15:05:45;11.40;99.90
2158;DHT22;41972;48.774;9.282;2023-12-29T15:08:11;11.40;99.90
2158;DHT22;41972;48.774;9.282;2023-12-29T15:10:37;11.40;99.90
2158;DHT22;41972;48.774;9.282;2023-12-29T15:13:03;11.40;99.90
2158;DHT22;41972;48.774;9.282;2023-12-29T15:15:29;11.30;99.90
2158;DHT22;41972;48.774;9.282;2023-12-29T15:17:55;11.30;99.90
2158;DHT22;41972;48.774;9.282;2023-12-29T15:20:20;11.30;99.90
2158;DHT22;41972;48.774;9.282;2023-12-29T15:22:46;11.40;99.90
2158;DHT22;41972;48.774;9.282;2023-12-29T15:25:11;11.30;99.90
2158;DHT22;41972;48.774;9.282;2023-12-29T15:27:37;11.20;99.90
2158;DHT22;41972;48.774;9.282;2023-12-29T15:30:03;11.00;99.90
2158;DHT22;41972;48.774;9.282;2023-12-29T15:32:28;11.00;99.90
2158;DHT22;41972;48.774;9.282;2023-12-29T15:34:54;10.80;99.90
2158;DHT22;41972;48.774;9.282;2023-12-29T15:37:24;10.80;99.90
2158;DHT22;41972;48.774;9.282;2023-12-29T15:39:49;10.70;99.90
2158;DHT22;41972;48.774;9.282;2023-12-29T15:42:15;10.70;99.90
2158;DHT22;41972;48.774;9.282;2023-12-29T15:44:41;10.70;99.90
2158;DHT22;41972;48.774;9.282;2023-12-29T15:47:07;11.50;99.90
2158;DHT22;41972;48.774;9.282;2023-12-29T15:49:32;10.60;99.90
2158;DHT22;41972;48.774;9.282;2023-12-29T15:51:58;10.60;99.90
2158;DHT22;41972;48.774;9.282;2023-12-29T15:54:24;10.60;99.90
2158;DHT22;41972;48.774;9.282;2023-12-29T15:56:50;10.70;99.90
2158;DHT22;41972;48.774;9.282;2023-12-29T15:59:15;10.70;99.90
2158;DHT22;41972;48.774;9.282;2023-12-29T16:01:41;11.90;99.90
2158;DHT22;41972;48.774;9.282;2023-12-29T16:04:06;10.70;99.90
2158;DHT22;41972;48.774;9.282;2023-12-29T16:06:32;10.60;99.90
2158;DHT22;41972;48.774;9.282;2023-12-29T16:08:57;10.80;99.90
2158;DHT22;41972;48.774;9.282;2023-12-29T16:11:24;10.50;99.90
2158;DHT22;41972;48.774;9.282;2023-12-29T16:13:51;10.50;99.90